Time;durP1;ratioP1;P1;durP2;ratioP2;P2;SDS_P1;SDS_P2;PMS_P1;PMS_P2;Temp;Humidity;BMP_temperature;BMP_pressure;BME280_temperature;BME280_humidity;BME280_pressure;Samples;Min_cycle;Max_cycle;Signal;HPM_P1;HPM_P2
2021/09/09 00:00:37;;;;;;;18.40;11.80;;;;;;;;;;5084442;28;20085;-68
2021/09/09 00:03:03;;;;;;;15.52;11.50;;;;;;;;;;5086814;28;20573;-68
2021/09/09 00:05:30;;;;;;;17.30;11.55;;;;;;;;;;5081514;28;20066;-68
2021/09/09 00:07:56;;;;;;;14.45;10.95;;;;;;;;;;5102660;28;20047;-68
2021/09/09 00:10:22;;;;;;;18.77;12.30;;;;;;;;;;5100334;28;20067;-68
2021/09/09 00:12:48;;;;;;;17.90;12.05;;;;;;;;;;5098080;28;20039;-67
2021/09/09 00:15:14;;;;;;;16.75;11.85;;;;;;;;;;5100161;28;20043;-68
2021/09/09 00:17:41;;;;;;;19.27;13.50;;;;;;;;;;5079534;28;20395;-67
2021/09/09 00:20:09;;;;;;;15.68;11.88;;;;;;;;;;5101077;28;20112;-68
2021/09/09 00:22:35;;;;;;;19.65;11.32;;;;;;;;;;5084299;28;20042;-68
2021/09/09 00:25:01;;;;;;;15.23;11.45;;;;;;;;;;5100748;28;20043;-68
2021/09/09 00:27:27;;;;;;;13.98;11.63;;;;;;;;;;5084273;28;20063;-68
2021/09/09 00:29:54;;;;;;;17.98;11.52;;;;;;;;;;5103647;28;20051;-68
2021/09/09 00:32:20;;;;;;;17.75;12.00;;;;;;;;;;5074761;28;20132;-68
2021/09/09 00:34:46;;;;;;;15.02;11.85;;;;;;;;;;5075015;28;20052;-68
2021/09/09 00:37:12;;;;;;;13.77;11.20;;;;;;;;;;5079178;28;20044;-68
2021/09/09 00:39:38;;;;;;;20.42;12.73;;;;;;;;;;5080841;28;20458;-68
2021/09/09 00:42:05;;;;;;;19.90;11.63;;;;;;;;;;5082496;28;20340;-67
2021/09/09 00:44:31;;;;;;;19.38;13.10;;;;;;;;;;5078769;28;20514;-67
2021/09/09 00:46:59;;;;;;;21.52;13.75;;;;;;;;;;5082537;28;20051;-67
2021/09/09 00:49:25;;;;;;;14.77;12.05;;;;;;;;;;5079033;28;20421;-67
2021/09/09 00:51:51;;;;;;;17.33;11.48;;;;;;;;;;5080254;28;20037;-68
2021/09/09 00:54:17;;;;;;;15.63;12.23;;;;;;;;;;5084411;28;20043;-68
2021/09/09 00:56:43;;;;;;;15.57;11.80;;;;;;;;;;5076554;28;20044;-67
2021/09/09 00:59:09;;;;;;;16.10;11.77;;;;;;;;;;5074810;28;20561;-67
2021/09/09 01:01:36;;;;;;;17.92;12.23;;;;;;;;;;5077135;28;20037;-67
2021/09/09 01:04:02;;;;;;;15.50;12.27;;;;;;;;;;5078360;28;20052;-67
2021/09/09 01:06:28;;;;;;;17.98;12.10;;;;;;;;;;5082562;28;20040;-67
2021/09/09 01:08:55;;;;;;;17.48;11.07;;;;;;;;;;5080063;28;21538;-68
2021/09/09 01:11:21;;;;;;;15.20;11.45;;;;;;;;;;5080725;28;20040;-67
2021/09/09 01:13:50;;;;;;;16.30;11.95;;;;;;;;;;5081184;28;20558;-68
2021/09/09 01:16:16;;;;;;;17.60;11.43;;;;;;;;;;5080851;28;20596;-67
2021/09/09 01:18:42;;;;;;;20.70;12.18;;;;;;;;;;5078809;28;20474;-68
2021/09/09 01:21:09;;;;;;;15.95;11.75;;;;;;;;;;5077585;28;20122;-68
2021/09/09 01:23:36;;;;;;;14.73;10.88;;;;;;;;;;5081082;28;20165;-68
2021/09/09 01:26:03;;;;;;;16.02;12.57;;;;;;;;;;5077784;28;20154;-67
2021/09/09 01:28:29;;;;;;;18.02;12.52;;;;;;;;;;5079336;28;20050;-67
2021/09/09 01:30:55;;;;;;;17.30;11.60;;;;;;;;;;5062207;28;20552;-68
2021/09/09 01:33:21;;;;;;;18.10;12.55;;;;;;;;;;5099327;28;20082;-68
2021/09/09 01:35:48;;;;;;;16.45;12.07;;;;;;;;;;5096190;28;20042;-68
2021/09/09 01:38:19;;;;;;;15.75;11.82;;;;;;;;;;5100161;28;20082;-68
2021/09/09 01:40:45;;;;;;;14.52;11.48;;;;;;;;;;5081320;28;20134;-67
2021/09/09 01:43:11;;;;;;;15.25;11.68;;;;;;;;;;5098198;28;20043;-67
2021/09/09 01:45:37;;;;;;;16.27;11.95;;;;;;;;;;5084087;28;20494;-68
2021/09/09 01:48:04;;;;;;;15.45;11.73;;;;;;;;;;5101002;28;20039;-67
2021/09/09 01:50:30;;;;;;;16.35;12.10;;;;;;;;;;5102252;28;20054;-67
2021/09/09 01:52:56;;;;;;;17.92;11.70;;;;;;;;;;5083298;28;20039;-67
2021/09/09 01:55:22;;;;;;;18.38;12.02;;;;;;;;;;5096339;28;20040;-68
2021/09/09 01:57:48;;;;;;;16.25;11.43;;;;;;;;;;5098916;28;20046;-68
2021/09/09 02:00:15;;;;;;;17.13;12.50;;;;;;;;;;5077774;28;20040;-67
2021/09/09 02:02:42;;;;;;;19.15;12.57;;;;;;;;;;5099832;28;20042;-67
2021/09/09 02:05:08;;;;;;;19.05;11.80;;;;;;;;;;5096534;28;20533;-68
2021/09/09 02:07:35;;;;;;;17.88;11.43;;;;;;;;;;5079493;28;20050;-68
2021/09/09 02:10:01;;;;;;;17.83;11.98;;;;;;;;;;5099132;28;20044;-67
2021/09/09 02:12:27;;;;;;;15.30;11.93;;;;;;;;;;5096179;28;20079;-68
2021/09/09 02:14:53;;;;;;;18.20;12.60;;;;;;;;;;5095869;28;20047;-67
2021/09/09 02:17:20;;;;;;;18.95;12.30;;;;;;;;;;5099965;28;20078;-67
2021/09/09 02:19:46;;;;;;;16.92;12.50;;;;;;;;;;5081509;28;20051;-67
2021/09/09 02:22:12;;;;;;;17.65;11.68;;;;;;;;;;5079160;28;20044;-68
2021/09/09 02:24:44;;;;;;;17.92;12.40;;;;;;;;;;5063611;28;20100;-68
2021/09/09 02:27:11;;;;;;;19.08;12.32;;;;;;;;;;5062578;28;20031;-68
2021/09/09 02:29:37;;;;;;;17.13;12.10;;;;;;;;;;5078816;28;20163;-68
2021/09/09 02:32:04;;;;;;;17.23;12.02;;;;;;;;;;5097294;28;20051;-68
2021/09/09 02:34:30;;;;;;;18.00;12.52;;;;;;;;;;5098325;28;20386;-67
2021/09/09 02:36:56;;;;;;;16.45;12.05;;;;;;;;;;5084634;28;20118;-68
2021/09/09 02:39:22;;;;;;;20.52;12.10;;;;;;;;;;5080124;28;20035;-67
2021/09/09 02:41:48;;;;;;;17.98;13.05;;;;;;;;;;5080048;28;20031;-67
2021/09/09 02:44:15;;;;;;;19.60;12.52;;;;;;;;;;5077930;28;20043;-67
2021/09/09 02:46:41;;;;;;;19.27;12.00;;;;;;;;;;5075580;28;20413;-67
2021/09/09 02:49:07;;;;;;;17.42;12.18;;;;;;;;;;5101601;28;20047;-68
2021/09/09 02:51:33;;;;;;;16.58;11.75;;;;;;;;;;5080313;28;20142;-68
2021/09/09 02:53:59;;;;;;;17.48;12.73;;;;;;;;;;5097391;28;20484;-68
2021/09/09 02:56:26;;;;;;;17.00;12.70;;;;;;;;;;5097076;28;20168;-67
2021/09/09 02:58:52;;;;;;;17.83;11.68;;;;;;;;;;5097361;28;20083;-68
2021/09/09 03:01:18;;;;;;;22.13;12.63;;;;;;;;;;5077656;28;20043;-68
2021/09/09 03:03:44;;;;;;;15.88;11.70;;;;;;;;;;5102335;28;20058;-68
2021/09/09 03:06:10;;;;;;;19.33;11.50;;;;;;;;;;5098863;28;20040;-67
2021/09/09 03:08:37;;;;;;;17.73;12.10;;;;;;;;;;5095531;28;20047;-67
2021/09/09 03:11:03;;;;;;;19.55;11.63;;;;;;;;;;5096172;28;20051;-68
2021/09/09 03:13:29;;;;;;;18.65;12.35;;;;;;;;;;5079346;28;20107;-68
2021/09/09 03:15:55;;;;;;;18.80;12.68;;;;;;;;;;5084062;28;20052;-67
2021/09/09 03:18:22;;;;;;;17.30;12.52;;;;;;;;;;5079327;28;20051;-67
2021/09/09 03:20:48;;;;;;;17.13;12.27;;;;;;;;;;5082009;28;20048;-67
2021/09/09 03:23:14;;;;;;;18.35;11.15;;;;;;;;;;5083488;28;20093;-67
2021/09/09 03:25:40;;;;;;;18.15;12.48;;;;;;;;;;5099753;28;20084;-67
2021/09/09 03:28:06;;;;;;;20.88;12.65;;;;;;;;;;5098393;28;20420;-68
2021/09/09 03:30:33;;;;;;;18.92;12.82;;;;;;;;;;5098575;28;20036;-68
2021/09/09 03:32:59;;;;;;;18.98;12.25;;;;;;;;;;5078956;28;20503;-67
2021/09/09 03:35:25;;;;;;;16.75;12.43;;;;;;;;;;5082409;28;20048;-67
2021/09/09 03:37:51;;;;;;;16.23;12.52;;;;;;;;;;5081650;28;20051;-67
2021/09/09 03:40:17;;;;;;;20.77;12.55;;;;;;;;;;5085138;28;20043;-68
2021/09/09 03:42:43;;;;;;;18.35;11.98;;;;;;;;;;5079474;28;20040;-68
2021/09/09 03:45:10;;;;;;;22.98;12.60;;;;;;;;;;5079386;28;20044;-68
2021/09/09 03:47:36;;;;;;;18.95;13.07;;;;;;;;;;5081541;28;20453;-67
2021/09/09 03:50:03;;;;;;;18.13;12.95;;;;;;;;;;5079234;28;20047;-67
2021/09/09 03:52:29;;;;;;;17.85;12.85;;;;;;;;;;5082634;28;20149;-68
2021/09/09 03:54:55;;;;;;;18.17;13.18;;;;;;;;;;5082428;28;20554;-68
2021/09/09 03:57:21;;;;;;;18.98;12.63;;;;;;;;;;5083933;28;20146;-68
2021/09/09 03:59:48;;;;;;;21.10;12.93;;;;;;;;;;5081111;28;20036;-67
2021/09/09 04:02:14;;;;;;;18.70;12.70;;;;;;;;;;5082326;28;20040;-67
2021/09/09 04:04:40;;;;;;;18.88;13.30;;;;;;;;;;5080827;28;20051;-68
2021/09/09 04:07:06;;;;;;;18.40;13.13;;;;;;;;;;5080535;28;20039;-67
2021/09/09 04:09:32;;;;;;;21.08;12.52;;;;;;;;;;5097912;28;20048;-67
2021/09/09 04:11:59;;;;;;;19.67;12.82;;;;;;;;;;5084554;28;20123;-68
2021/09/09 04:14:25;;;;;;;17.52;12.70;;;;;;;;;;5078692;28;20166;-67
2021/09/09 04:16:52;;;;;;;22.33;13.70;;;;;;;;;;5080178;28;20127;-69
2021/09/09 04:19:19;;;;;;;18.13;13.30;;;;;;;;;;5078515;28;20079;-68
2021/09/09 04:21:46;;;;;;;21.90;13.48;;;;;;;;;;5079568;28;20040;-68
2021/09/09 04:24:12;;;;;;;24.50;13.73;;;;;;;;;;5080017;28;20048;-68
2021/09/09 04:26:38;;;;;;;20.33;13.32;;;;;;;;;;5081029;28;20135;-68
2021/09/09 04:29:05;;;;;;;16.23;13.30;;;;;;;;;;5082856;28;20044;-68
2021/09/09 04:31:31;;;;;;;22.13;14.05;;;;;;;;;;5079541;28;20050;-68
2021/09/09 04:33:57;;;;;;;20.50;13.60;;;;;;;;;;5080615;28;20060;-67
2021/09/09 04:36:23;;;;;;;21.67;14.50;;;;;;;;;;5080533;28;20036;-67
2021/09/09 04:38:49;;;;;;;22.05;14.43;;;;;;;;;;5084263;28;20043;-68
2021/09/09 04:41:16;;;;;;;20.77;13.63;;;;;;;;;;5078320;28;20410;-68
2021/09/09 04:43:42;;;;;;;21.15;13.52;;;;;;;;;;5078948;28;21897;-68
2021/09/09 04:46:09;;;;;;;22.55;13.55;;;;;;;;;;5081426;28;20079;-68
2021/09/09 04:48:36;;;;;;;19.52;14.00;;;;;;;;;;5081218;28;20040;-68
2021/09/09 04:51:02;;;;;;;19.45;14.57;;;;;;;;;;5078928;28;20060;-68
2021/09/09 04:53:29;;;;;;;19.67;14.40;;;;;;;;;;5079327;28;20136;-68
2021/09/09 04:55:55;;;;;;;19.52;14.25;;;;;;;;;;5079401;28;20052;-68
2021/09/09 04:58:21;;;;;;;20.35;14.68;;;;;;;;;;5078700;28;20090;-68
2021/09/09 05:00:48;;;;;;;21.27;14.43;;;;;;;;;;5074645;28;20123;-68
2021/09/09 05:03:15;;;;;;;19.27;15.43;;;;;;;;;;5074314;28;20040;-68
2021/09/09 05:05:41;;;;;;;21.05;14.57;;;;;;;;;;5078812;28;20105;-67
2021/09/09 05:08:07;;;;;;;21.67;14.68;;;;;;;;;;5079636;28;20036;-67
2021/09/09 05:10:33;;;;;;;19.65;13.57;;;;;;;;;;5076968;28;20044;-67
2021/09/09 05:13:00;;;;;;;21.00;13.77;;;;;;;;;;5082578;28;20048;-67
2021/09/09 05:15:26;;;;;;;22.75;15.80;;;;;;;;;;5076477;28;20313;-67
2021/09/09 05:17:52;;;;;;;20.60;15.02;;;;;;;;;;5064089;28;20197;-67
2021/09/09 05:20:20;;;;;;;24.45;15.07;;;;;;;;;;5081616;28;20188;-67
2021/09/09 05:22:47;;;;;;;24.08;14.45;;;;;;;;;;5081113;28;20047;-67
2021/09/09 05:25:13;;;;;;;21.52;14.20;;;;;;;;;;5080343;28;20044;-66
2021/09/09 05:27:40;;;;;;;18.77;14.50;;;;;;;;;;5081336;28;20066;-67
2021/09/09 05:30:06;;;;;;;20.52;14.77;;;;;;;;;;5081351;28;20050;-66
2021/09/09 05:32:33;;;;;;;20.15;15.45;;;;;;;;;;5093120;28;20051;-66
2021/09/09 05:35:00;;;;;;;22.83;16.13;;;;;;;;;;5100040;28;20505;-67
2021/09/09 05:37:26;;;;;;;24.67;15.82;;;;;;;;;;5080463;28;20074;-67
2021/09/09 05:39:52;;;;;;;22.10;15.13;;;;;;;;;;5097315;28;20035;-67
2021/09/09 05:42:19;;;;;;;26.30;14.70;;;;;;;;;;5095470;28;20478;-67
2021/09/09 05:44:45;;;;;;;22.75;15.27;;;;;;;;;;5081837;28;20097;-67
2021/09/09 05:47:11;;;;;;;20.05;15.32;;;;;;;;;;5096558;28;20039;-67
2021/09/09 05:49:38;;;;;;;22.38;15.52;;;;;;;;;;5089110;28;20051;-67
2021/09/09 05:52:04;;;;;;;19.75;15.43;;;;;;;;;;5102047;28;20040;-67
2021/09/09 05:54:32;;;;;;;23.73;16.38;;;;;;;;;;5090856;28;20047;-67
2021/09/09 05:56:58;;;;;;;24.05;16.10;;;;;;;;;;5102719;28;20046;-66
2021/09/09 05:59:24;;;;;;;25.50;16.98;;;;;;;;;;5100409;28;20043;-67
2021/09/09 06:01:50;;;;;;;24.33;16.13;;;;;;;;;;5076997;28;20398;-67
2021/09/09 06:04:18;;;;;;;22.75;16.13;;;;;;;;;;5105644;28;20506;-67
2021/09/09 06:06:44;;;;;;;21.98;16.65;;;;;;;;;;5087708;28;20470;-66
2021/09/09 06:09:11;;;;;;;21.08;16.35;;;;;;;;;;5100574;28;20402;-67
2021/09/09 06:11:37;;;;;;;23.88;15.30;;;;;;;;;;5081161;28;20556;-67
2021/09/09 06:14:04;;;;;;;22.17;15.68;;;;;;;;;;5075513;28;20044;-67
2021/09/09 06:16:30;;;;;;;20.00;14.65;;;;;;;;;;5092180;28;20043;-67
2021/09/09 06:18:56;;;;;;;29.08;16.40;;;;;;;;;;5087260;28;20180;-67
2021/09/09 06:21:22;;;;;;;25.00;17.00;;;;;;;;;;5084357;28;20514;-67
2021/09/09 06:23:49;;;;;;;18.60;14.55;;;;;;;;;;5079442;28;20139;-67
2021/09/09 06:26:15;;;;;;;20.73;15.80;;;;;;;;;;5099373;28;20487;-67
2021/09/09 06:28:41;;;;;;;22.92;16.08;;;;;;;;;;5105799;28;20031;-67
2021/09/09 06:31:07;;;;;;;20.98;16.48;;;;;;;;;;5087628;28;20063;-67
2021/09/09 06:33:33;;;;;;;21.10;16.92;;;;;;;;;;5104487;28;20160;-67
2021/09/09 06:36:00;;;;;;;22.85;17.33;;;;;;;;;;5082803;28;20066;-66
2021/09/09 06:38:26;;;;;;;21.77;16.05;;;;;;;;;;5081641;28;20509;-69
2021/09/09 06:40:52;;;;;;;24.63;17.33;;;;;;;;;;5081788;28;20209;-67
2021/09/09 06:43:18;;;;;;;23.73;16.73;;;;;;;;;;5099914;28;20036;-66
2021/09/09 06:45:44;;;;;;;19.65;15.60;;;;;;;;;;5095916;28;20040;-66
2021/09/09 06:48:10;;;;;;;24.70;16.90;;;;;;;;;;5104367;28;20054;-66
2021/09/09 06:50:37;;;;;;;20.58;16.25;;;;;;;;;;5083311;28;20081;-67
2021/09/09 06:53:03;;;;;;;21.25;16.40;;;;;;;;;;5088167;28;20039;-67
2021/09/09 06:55:29;;;;;;;25.60;16.83;;;;;;;;;;5091107;28;20040;-67
2021/09/09 06:57:57;;;;;;;23.10;16.98;;;;;;;;;;5080549;28;20047;-67
2021/09/09 07:00:23;;;;;;;27.05;18.23;;;;;;;;;;5087707;28;20400;-67
2021/09/09 07:02:49;;;;;;;24.17;17.15;;;;;;;;;;5109744;28;20039;-67
2021/09/09 07:05:15;;;;;;;22.80;17.38;;;;;;;;;;5103971;28;20042;-67
2021/09/09 07:07:42;;;;;;;23.65;18.30;;;;;;;;;;5101359;28;20036;-67
2021/09/09 07:10:09;;;;;;;26.58;17.27;;;;;;;;;;5096464;28;20101;-67
2021/09/09 07:12:36;;;;;;;25.40;17.42;;;;;;;;;;5088182;28;20534;-67
2021/09/09 07:15:02;;;;;;;20.40;17.05;;;;;;;;;;5093748;28;20051;-67
2021/09/09 07:17:29;;;;;;;22.45;16.95;;;;;;;;;;5094608;28;20505;-67
2021/09/09 07:19:55;;;;;;;26.35;17.70;;;;;;;;;;5096069;28;20040;-67
2021/09/09 07:22:21;;;;;;;20.33;17.23;;;;;;;;;;5088928;28;20056;-67
2021/09/09 07:24:47;;;;;;;22.98;17.58;;;;;;;;;;5095701;28;20568;-67
2021/09/09 07:27:14;;;;;;;25.98;18.85;;;;;;;;;;5105628;28;20350;-67
2021/09/09 07:29:40;;;;;;;26.92;17.95;;;;;;;;;;5087187;28;20047;-67
2021/09/09 07:32:06;;;;;;;25.85;17.15;;;;;;;;;;5110110;28;20047;-67
2021/09/09 07:34:33;;;;;;;23.58;18.42;;;;;;;;;;5098114;28;20048;-67
2021/09/09 07:36:59;;;;;;;22.75;17.58;;;;;;;;;;5106696;28;20051;-67
2021/09/09 07:39:25;;;;;;;27.08;17.63;;;;;;;;;;5091611;28;20393;-67
2021/09/09 07:41:51;;;;;;;22.13;17.27;;;;;;;;;;5086561;28;20040;-67
2021/09/09 07:44:17;;;;;;;25.33;18.10;;;;;;;;;;5090786;28;20085;-67
2021/09/09 07:46:44;;;;;;;34.97;28.38;;;;;;;;;;5105922;28;20135;-67
2021/09/09 07:49:11;;;;;;;29.38;18.27;;;;;;;;;;5095162;28;20036;-67
2021/09/09 07:51:37;;;;;;;23.65;17.23;;;;;;;;;;5105592;28;20086;-67
2021/09/09 07:54:03;;;;;;;21.50;16.90;;;;;;;;;;5087002;28;20078;-67
2021/09/09 07:56:30;;;;;;;20.48;16.85;;;;;;;;;;5100844;28;20092;-67
2021/09/09 07:58:56;;;;;;;23.40;17.95;;;;;;;;;;5091391;28;20083;-67
2021/09/09 08:01:22;;;;;;;25.17;17.95;;;;;;;;;;5109936;28;20499;-67
2021/09/09 08:03:49;;;;;;;21.88;17.83;;;;;;;;;;5098466;28;20035;-67
2021/09/09 08:06:15;;;;;;;21.58;17.33;;;;;;;;;;5113477;28;20494;-67
2021/09/09 08:08:42;;;;;;;22.35;17.35;;;;;;;;;;5107141;28;20040;-67
2021/09/09 08:11:09;;;;;;;21.77;18.08;;;;;;;;;;5104115;28;20097;-67
2021/09/09 08:13:35;;;;;;;23.83;16.90;;;;;;;;;;5100974;28;20037;-67
2021/09/09 08:16:02;;;;;;;21.80;18.10;;;;;;;;;;5104833;28;20040;-67
2021/09/09 08:18:28;;;;;;;24.38;17.88;;;;;;;;;;5106354;28;20428;-67
2021/09/09 08:20:54;;;;;;;24.38;16.60;;;;;;;;;;5086140;28;20432;-67
2021/09/09 08:23:21;;;;;;;22.75;17.15;;;;;;;;;;5101851;28;20039;-67
2021/09/09 08:25:47;;;;;;;25.38;18.30;;;;;;;;;;5103532;28;20396;-67
2021/09/09 08:28:16;;;;;;;22.90;17.92;;;;;;;;;;5105096;28;20062;-67
2021/09/09 08:30:43;;;;;;;25.50;17.55;;;;;;;;;;5099606;28;20037;-67
2021/09/09 08:33:09;;;;;;;22.92;17.63;;;;;;;;;;5082297;28;20479;-67
2021/09/09 08:35:36;;;;;;;23.35;17.08;;;;;;;;;;5081898;28;20121;-67
2021/09/09 08:38:02;;;;;;;22.45;17.25;;;;;;;;;;5095675;28;20040;-67
2021/09/09 08:40:28;;;;;;;23.45;16.95;;;;;;;;;;5103634;28;20044;-67
2021/09/09 08:42:54;;;;;;;24.75;17.13;;;;;;;;;;5100361;28;20061;-67
2021/09/09 08:45:20;;;;;;;20.98;16.27;;;;;;;;;;5097407;28;20040;-67
2021/09/09 08:47:48;;;;;;;21.98;16.92;;;;;;;;;;5106411;28;20402;-67
2021/09/09 08:50:14;;;;;;;25.55;17.92;;;;;;;;;;5098346;28;20121;-67
2021/09/09 08:52:40;;;;;;;21.85;16.30;;;;;;;;;;5085118;28;20087;-67
2021/09/09 08:55:07;;;;;;;23.30;16.63;;;;;;;;;;5107068;28;20059;-67
2021/09/09 08:57:33;;;;;;;20.38;15.68;;;;;;;;;;5102662;28;20043;-67
2021/09/09 08:59:59;;;;;;;23.50;15.55;;;;;;;;;;5079850;28;20075;-67
2021/09/09 09:02:26;;;;;;;24.75;16.88;;;;;;;;;;5085924;28;20079;-67
2021/09/09 09:05:07;;;;;;;23.23;17.25;;;;;;;;;;5086146;28;20440;-67
2021/09/09 09:07:35;;;;;;;22.98;16.10;;;;;;;;;;5098953;28;20113;-68
2021/09/09 09:10:03;;;;;;;27.73;15.65;;;;;;;;;;5083307;28;20381;-67
2021/09/09 09:12:37;;;;;;;24.50;16.25;;;;;;;;;;5078254;28;20568;-67
2021/09/09 09:15:14;;;;;;;20.95;15.25;;;;;;;;;;5083750;28;20427;-67
2021/09/09 09:17:53;;;;;;;23.73;15.35;;;;;;;;;;5082862;28;20118;-67
2021/09/09 09:20:20;;;;;;;19.88;15.98;;;;;;;;;;5099694;28;20051;-67
2021/09/09 09:22:46;;;;;;;22.33;16.23;;;;;;;;;;5103071;28;20039;-67
2021/09/09 09:25:13;;;;;;;21.95;15.73;;;;;;;;;;5101223;28;20027;-67
2021/09/09 09:27:46;;;;;;;19.60;15.07;;;;;;;;;;5099952;28;20439;-67
2021/09/09 09:30:13;;;;;;;;;;;;;;;;;;5085901;28;20101;-67
2021/09/09 09:32:47;;;;;;;20.98;14.90;;;;;;;;;;5097810;28;19920;-67
2021/09/09 09:35:16;;;;;;;20.08;15.50;;;;;;;;;;5082409;28;20080;-67
2021/09/09 09:37:51;;;;;;;19.45;15.23;;;;;;;;;;5083673;28;20106;-67
2021/09/09 09:40:26;;;;;;;20.30;15.05;;;;;;;;;;5085760;28;20495;-68
2021/09/09 09:42:52;;;;;;;21.00;17.00;;;;;;;;;;5074770;28;20048;-68
2021/09/09 09:45:19;;;;;;;25.98;15.95;;;;;;;;;;5101647;28;20042;-68
2021/09/09 09:47:45;;;;;;;21.52;14.82;;;;;;;;;;5083675;28;20071;-67
2021/09/09 09:50:17;;;;;;;21.85;14.48;;;;;;;;;;5083849;28;20476;-67
2021/09/09 09:52:43;;;;;;;20.13;14.70;;;;;;;;;;5098904;28;20055;-67
2021/09/09 09:55:10;;;;;;;23.65;14.63;;;;;;;;;;5097324;28;20051;-68
2021/09/09 09:57:50;;;;;;;19.05;14.23;;;;;;;;;;5106764;28;20445;-68
2021/09/09 10:00:16;;;;;;;22.88;13.88;;;;;;;;;;5096905;28;20039;-67
2021/09/09 10:02:43;;;;;;;22.02;14.85;;;;;;;;;;5075888;28;20094;-67
2021/09/09 10:05:10;;;;;;;18.50;13.85;;;;;;;;;;5096845;28;20070;-68
2021/09/09 10:07:36;;;;;;;19.05;12.25;;;;;;;;;;5081600;28;20118;-68
2021/09/09 10:10:03;;;;;;;16.95;12.80;;;;;;;;;;5100164;28;20467;-67
2021/09/09 10:12:29;;;;;;;16.13;12.88;;;;;;;;;;5100145;28;20479;-68
2021/09/09 10:14:56;;;;;;;15.73;13.48;;;;;;;;;;5101445;28;20093;-67
2021/09/09 10:17:23;;;;;;;15.55;12.65;;;;;;;;;;5084172;28;20539;-68
2021/09/09 10:19:50;;;;;;;17.70;13.13;;;;;;;;;;5083197;28;20479;-67
2021/09/09 10:22:17;;;;;;;19.42;13.18;;;;;;;;;;5098766;28;20039;-67
2021/09/09 10:24:44;;;;;;;12.75;11.13;;;;;;;;;;5084348;28;20043;-68
2021/09/09 10:27:16;;;;;;;15.95;12.57;;;;;;;;;;5084866;28;20039;-68
2021/09/09 10:29:42;;;;;;;14.80;11.32;;;;;;;;;;5081830;28;20051;-68
2021/09/09 10:32:09;;;;;;;15.23;11.80;;;;;;;;;;5096055;28;20052;-68
2021/09/09 10:34:35;;;;;;;16.35;11.45;;;;;;;;;;5098063;28;20185;-68
2021/09/09 10:37:03;;;;;;;13.63;10.65;;;;;;;;;;5078948;28;20493;-68
2021/09/09 10:39:34;;;;;;;16.52;11.00;;;;;;;;;;5080084;28;20097;-67
2021/09/09 10:42:00;;;;;;;18.45;10.73;;;;;;;;;;5079740;28;20483;-67
2021/09/09 10:44:28;;;;;;;13.73;10.82;;;;;;;;;;5094200;28;20043;-67
2021/09/09 10:46:55;;;;;;;15.20;11.45;;;;;;;;;;5059012;28;20120;-67
2021/09/09 10:49:22;;;;;;;16.58;11.68;;;;;;;;;;5100325;28;20074;-67
2021/09/09 10:52:04;;;;;;;14.73;12.27;;;;;;;;;;5097255;28;20043;-67
2021/09/09 10:54:31;;;;;;;17.15;12.10;;;;;;;;;;5078949;28;20043;-67
2021/09/09 10:57:13;;;;;;;13.88;10.95;;;;;;;;;;5100489;28;20048;-67
2021/09/09 10:59:46;;;;;;;17.50;10.55;;;;;;;;;;5078648;28;20522;-67
2021/09/09 11:02:14;;;;;;;15.32;10.52;;;;;;;;;;5102135;28;20056;-64
2021/09/09 11:04:41;;;;;;;15.95;10.25;;;;;;;;;;5105338;28;20367;-64
2021/09/09 11:07:21;;;;;;;13.32;9.27;;;;;;;;;;5105331;28;20040;-64
2021/09/09 11:09:47;;;;;;;12.30;10.63;;;;;;;;;;5096172;28;20055;-64
2021/09/09 11:12:14;;;;;;;14.52;9.98;;;;;;;;;;5078682;28;20048;-64
2021/09/09 11:14:40;;;;;;;13.88;9.77;;;;;;;;;;5080127;28;20047;-64
2021/09/09 11:17:06;;;;;;;12.38;9.45;;;;;;;;;;5078268;28;20128;-64
2021/09/09 11:19:34;;;;;;;12.60;8.45;;;;;;;;;;5078623;28;20044;-64
2021/09/09 11:22:04;;;;;;;14.15;9.00;;;;;;;;;;5098116;28;20040;-64
2021/09/09 11:24:34;;;;;;;13.82;8.50;;;;;;;;;;5097935;28;20040;-64
2021/09/09 11:27:00;;;;;;;13.15;8.77;;;;;;;;;;5097284;28;20545;-65
2021/09/09 11:29:26;;;;;;;10.68;8.10;;;;;;;;;;5102157;28;20032;-65
2021/09/09 11:31:53;;;;;;;13.65;8.00;;;;;;;;;;5082063;28;20066;-65
2021/09/09 11:34:24;;;;;;;12.27;7.85;;;;;;;;;;5088834;28;20044;-65
2021/09/09 11:36:52;;;;;;;9.43;7.47;;;;;;;;;;5102692;28;20040;-65
2021/09/09 11:39:20;;;;;;;9.15;7.45;;;;;;;;;;5100849;28;20046;-65
2021/09/09 11:41:46;;;;;;;13.18;7.43;;;;;;;;;;5099377;28;20043;-65
2021/09/09 11:44:26;;;;;;;14.95;7.88;;;;;;;;;;5104164;28;20223;-65
2021/09/09 11:46:53;;;;;;;13.80;7.47;;;;;;;;;;5102419;28;20105;-65
2021/09/09 11:49:20;;;;;;;13.32;7.63;;;;;;;;;;5084428;28;20043;-65
2021/09/09 11:51:48;;;;;;;11.10;8.00;;;;;;;;;;5102122;28;20048;-65
2021/09/09 11:54:18;;;;;;;10.25;7.47;;;;;;;;;;5089175;28;20050;-65
2021/09/09 11:56:46;;;;;;;12.55;7.65;;;;;;;;;;5101408;28;20417;-65
2021/09/09 11:59:18;;;;;;;8.80;7.53;;;;;;;;;;5102698;28;20156;-65
2021/09/09 12:01:44;;;;;;;;;;;;;;;;;;5105093;28;20436;-65
2021/09/09 12:04:12;;;;;;;11.23;7.93;;;;;;;;;;5098044;28;20318;-65
2021/09/09 12:06:38;;;;;;;11.25;7.30;;;;;;;;;;5102621;28;20064;-65
2021/09/09 12:09:05;;;;;;;12.95;7.07;;;;;;;;;;5097502;28;20047;-65
2021/09/09 12:11:33;;;;;;;8.75;7.07;;;;;;;;;;5102589;28;20548;-65
2021/09/09 12:14:19;;;;;;;9.13;7.20;;;;;;;;;;5101784;28;20047;-65
2021/09/09 12:16:46;;;;;;;12.45;7.57;;;;;;;;;;5099214;28;20040;-65
2021/09/09 12:19:12;;;;;;;11.40;7.05;;;;;;;;;;5101878;28;20046;-65
2021/09/09 12:21:53;;;;;;;9.27;7.53;;;;;;;;;;5081362;28;20448;-65
2021/09/09 12:24:27;;;;;;;11.38;7.38;;;;;;;;;;5086133;28;20098;-65
2021/09/09 12:26:59;;;;;;;10.15;7.47;;;;;;;;;;5083445;28;20054;-65
2021/09/09 12:29:25;;;;;;;8.73;7.03;;;;;;;;;;5082449;28;20090;-65
2021/09/09 12:31:51;;;;;;;9.32;6.97;;;;;;;;;;5100842;28;20390;-65
2021/09/09 12:34:19;;;;;;;11.23;7.35;;;;;;;;;;5084901;28;20055;-65
2021/09/09 12:36:46;;;;;;;11.57;7.43;;;;;;;;;;5081024;28;20180;-65
2021/09/09 12:39:13;;;;;;;11.80;7.43;;;;;;;;;;5104489;28;20403;-65
2021/09/09 12:41:39;;;;;;;12.27;7.53;;;;;;;;;;5099020;28;20048;-64
2021/09/09 12:44:05;;;;;;;9.27;8.02;;;;;;;;;;5083906;28;20081;-65
2021/09/09 12:46:34;;;;;;;11.90;7.80;;;;;;;;;;5083347;28;20433;-66
2021/09/09 12:49:03;;;;;;;9.48;8.27;;;;;;;;;;5107301;28;20415;-66
2021/09/09 12:51:30;;;;;;;11.93;7.65;;;;;;;;;;5109393;28;20050;-66
2021/09/09 12:53:56;;;;;;;14.65;7.35;;;;;;;;;;5107844;28;20062;-66
2021/09/09 12:56:23;;;;;;;10.43;6.40;;;;;;;;;;5111014;28;20074;-66
2021/09/09 12:58:49;;;;;;;11.13;6.80;;;;;;;;;;5105706;28;20498;-66
2021/09/09 13:01:15;;;;;;;10.55;6.65;;;;;;;;;;5102823;28;20069;-66
2021/09/09 13:03:41;;;;;;;10.57;6.75;;;;;;;;;;5102395;28;20036;-64
2021/09/09 13:06:09;;;;;;;7.63;6.47;;;;;;;;;;5101542;28;20036;-65
2021/09/09 13:08:35;;;;;;;8.82;7.07;;;;;;;;;;5084993;28;20104;-65
2021/09/09 13:11:02;;;;;;;10.07;7.07;;;;;;;;;;5083961;28;20491;-65
2021/09/09 13:13:30;;;;;;;8.65;7.07;;;;;;;;;;5079104;28;20483;-65
2021/09/09 13:15:56;;;;;;;11.15;7.20;;;;;;;;;;5109096;28;20057;-65
2021/09/09 13:18:23;;;;;;;10.85;7.30;;;;;;;;;;5079758;28;20063;-65
2021/09/09 13:20:50;;;;;;;10.07;7.28;;;;;;;;;;5099029;28;20406;-65
2021/09/09 13:23:16;;;;;;;11.98;6.93;;;;;;;;;;5100796;28;20435;-65
2021/09/09 13:25:42;;;;;;;11.60;6.68;;;;;;;;;;5100444;28;20492;-65
2021/09/09 13:28:09;;;;;;;12.65;7.05;;;;;;;;;;5099138;28;20044;-65
2021/09/09 13:30:36;;;;;;;11.75;7.32;;;;;;;;;;5103346;28;20109;-64
2021/09/09 13:33:02;;;;;;;9.57;6.90;;;;;;;;;;5074672;28;20047;-65
2021/09/09 13:35:31;;;;;;;12.98;7.68;;;;;;;;;;5084896;28;20052;-65
2021/09/09 13:37:57;;;;;;;10.23;6.97;;;;;;;;;;5101009;28;20105;-64
2021/09/09 13:40:24;;;;;;;10.98;7.18;;;;;;;;;;5101266;28;20043;-64
2021/09/09 13:42:50;;;;;;;12.63;7.55;;;;;;;;;;5084016;28;20042;-64
2021/09/09 13:45:17;;;;;;;10.60;7.40;;;;;;;;;;5087568;28;20059;-64
2021/09/09 13:47:45;;;;;;;9.95;6.75;;;;;;;;;;5086556;28;20046;-64
2021/09/09 13:50:11;;;;;;;10.30;7.10;;;;;;;;;;5100196;28;20148;-64
2021/09/09 13:52:37;;;;;;;11.43;7.10;;;;;;;;;;5078090;28;20051;-65
2021/09/09 13:55:04;;;;;;;11.25;7.95;;;;;;;;;;5071283;28;20163;-65
2021/09/09 13:57:31;;;;;;;11.98;8.27;;;;;;;;;;5078051;28;20034;-65
2021/09/09 13:59:57;;;;;;;12.80;8.07;;;;;;;;;;5098448;28;20065;-65
2021/09/09 14:02:23;;;;;;;10.77;7.65;;;;;;;;;;5096809;28;20036;-65
2021/09/09 14:04:49;;;;;;;13.15;8.55;;;;;;;;;;5095266;28;20050;-65
2021/09/09 14:07:15;;;;;;;11.02;8.10;;;;;;;;;;5085036;28;20071;-64
2021/09/09 14:09:42;;;;;;;11.70;7.63;;;;;;;;;;5082134;28;20050;-65
2021/09/09 14:12:08;;;;;;;11.40;8.98;;;;;;;;;;5082604;28;20083;-65
2021/09/09 14:14:34;;;;;;;13.30;8.60;;;;;;;;;;5101418;28;20735;-65
2021/09/09 14:17:00;;;;;;;11.50;8.13;;;;;;;;;;5097842;28;20043;-65
2021/09/09 14:19:26;;;;;;;12.48;8.50;;;;;;;;;;5101133;28;20403;-65